Hlavní strana
METAR-TAF:

METAR-TAF

Letiště :

Letiště Gran Canaria

Gran Canaria, Španělsko

zeměpisná šířka: 27-56N, zeměpisná délka: 015-23W, výška: 23 m

Aktuální stav počasí

Zpráva byla vytvořena před 42 minutami, v 23:00 UTC
Severní vítr 16 kt
Teplota 17°C
Vlhkost vzduchu 63%
Tlak 1026 hPa
Viditelnost 10 km a více
Skoro jasno ve výšce 3500 ft
Oblačno až skoro zataženo ve výšce 4500 ft

METAR: GCLP 222300Z 01016KT 9999 FEW035 BKN045 17/10 Q1026 NOSIG

Čas: 23:42 (23:42 UTC)

Předpověď počasí

Zpráva byla vytvořena před 3 hodinami a 42 minutami, v 20:00 UTC
Předpověď platná od 22 v 21 UTC do 23 v 21 UTC
Severoseverovýchodní vítr 19 kt
Viditelnost 10 km a více
Polojasno ve výšce 3500 ft
Pravděpodobnost 30% :
Dočasný
od 23 v 15 UTC do 23 v 21 UTC
mrholení

TAF: GCLP 222000Z 2221/2321 02019KT 9999 SCT035 TX20/2314Z TN15/2306Z PROB30 TEMPO 2315/2321 DZ

Stav a předpovědi počasí z více než 4 000 letišť (zprávy METAR a TAF).

Červené a žluté tečky na mapě představují dostupné meteorologické stanice.

Když kurzor umístíte na tečku, zobrazí se název stanice.

Pak kliknutím zobrazíte stav a předpověď počasí.

Chcete-li změnit mapu, kliknutím na zelené tlačítko se znaménkem +mapu přiblížíte, kliknutím na zelené tlačítko se znaménkem – mapu oddálíte a kliknutím na zelené šipky přejdete na sousední mapy.


METAR-TAF: